Terminal Aerodrome Forecast
Issued by NWS

Home | Current Version | Previous Version | Text Only | Print | Product List | Glossary On
Versions: 1 2 3 4 5 6 7 8 9 10 11 12 13 14 15 16 17 18
000
FTUS41 KCLE 011300 AAA
TAFFDY
TAF AMD
KFDY 011341Z 0114/0212 12005KT 1 1/2SM -SN BR OVC008
      TEMPO 0114/0118 1/2SM SN VV004
     FM012200 08015KT 1/2SM SN OVC003
     FM020300 04015KT 1/2SM SN OVC003
     FM020500 03018G28KT 1 1/2SM -SN BLSN OVC005
     FM020800 02018G28KT 2SM -SN BLSN OVC007=

USA.gov is the U.S. government's official web portal to all federal, state and local government web resources and services.